Time;durP1;ratioP1;P1;durP2;ratioP2;P2;SDS_P1;SDS_P2;PMS_P1;PMS_P2;Temp;Humidity;BMP_temperature;BMP_pressure;BME280_temperature;BME280_humidity;BME280_pressure;Samples;Min_cycle;Max_cycle;Signal;HPM_P1;HPM_P2
2022/02/06 00:04:22;;;;;;;16.07;5.20;;;;;;;2.96;89.20;100166.44;3635718;79;26774;-89
2022/02/06 00:09:23;;;;;;;13.70;4.80;;;;;;;2.94;89.27;100157.25;3605865;79;98824;-91
2022/02/06 00:14:24;;;;;;;13.23;4.53;;;;;;;2.93;89.27;100143.44;3618207;79;98531;-89
2022/02/06 00:19:25;;;;;;;12.70;5.57;;;;;;;2.96;89.37;100131.88;3619040;79;98902;-89
2022/02/06 00:24:49;;;;;;;13.33;5.33;;;;;;;2.98;89.56;100129.64;3637378;79;98636;-88
2022/02/06 00:29:52;;;;;;;13.43;5.37;;;;;;;3.00;89.94;100122.52;3641955;78;98769;-90
2022/02/06 00:35:15;;;;;;;12.00;5.00;;;;;;;2.93;90.39;100108.66;3609510;79;27416;-88
2022/02/06 00:39:49;;;;;;;11.80;4.65;;;;;;;2.94;90.67;100107.52;3619376;79;98424;-88
2022/02/06 00:44:51;;;;;;;10.33;4.47;;;;;;;2.99;90.95;100101.33;3624663;79;99042;-89
2022/02/06 00:49:56;;;;;;;11.97;3.87;;;;;;;3.00;91.22;100102.14;3624041;78;98694;-89
2022/02/06 00:54:58;;;;;;;14.70;4.23;;;;;;;3.00;91.63;100093.41;3627866;79;97907;-87
2022/02/06 00:59:59;;;;;;;11.68;4.20;;;;;;;3.00;91.96;100081.75;3626742;79;98736;-87
2022/02/06 01:05:01;;;;;;;9.70;3.63;;;;;;;3.00;92.48;100078.45;3633463;79;33273;-94
2022/02/06 01:10:04;;;;;;;12.23;4.40;;;;;;;3.00;93.18;100075.73;3622330;79;98362;-89
2022/02/06 01:15:19;;;;;;;13.10;4.23;;;;;;;3.01;93.66;100068.38;3638042;79;98564;-89
2022/02/06 01:20:39;;;;;;;13.23;4.07;;;;;;;3.00;94.29;100056.70;3615282;78;98768;-88
2022/02/06 01:25:50;;;;;;;9.77;3.90;;;;;;;2.97;94.51;100040.28;3609133;79;98991;-87
2022/02/06 01:30:51;;;;;;;11.93;3.30;;;;;;;2.99;95.52;100036.09;3600815;80;98476;-87
2022/02/06 01:36:03;;;;;;;10.93;4.80;;;;;;;2.99;95.99;100026.58;3596617;80;97788;-91
2022/02/06 01:41:03;;;;;;;12.73;3.67;;;;;;;2.98;96.89;100010.05;3572089;80;98213;-88
2022/02/06 02:07:41;;;;;;;10.60;3.93;;;;;;;2.87;99.53;99945.03;3553526;81;98509;-85
2022/02/06 02:17:57;;;;;;;8.75;4.47;;;;;;;2.78;100.00;99929.38;3554012;82;98797;-85
2022/02/06 02:48:45;;;;;;;;;;;;;;;2.48;100.00;99865.51;3498427;81;98539;-84
2022/02/06 02:53:56;;;;;;;9.50;3.80;;;;;;;2.47;100.00;99865.25;3472879;83;84719;-85
2022/02/06 03:04:10;;;;;;;8.15;3.75;;;;;;;2.45;100.00;99840.92;3475535;85;98354;-84
2022/02/06 03:09:11;;;;;;;8.63;3.73;;;;;;;2.45;100.00;99825.43;3471349;83;98678;-84
2022/02/06 03:14:20;;;;;;;10.97;4.70;;;;;;;2.45;100.00;99804.26;3477972;84;98688;-83
2022/02/06 03:19:18;;;;;;;9.58;4.28;;;;;;;2.46;100.00;99817.50;3467268;83;99122;-84
2022/02/06 03:24:23;;;;;;;9.93;4.40;;;;;;;2.47;100.00;99800.66;3476958;85;98889;-83
2022/02/06 03:29:25;;;;;;;10.30;4.93;;;;;;;2.48;100.00;99798.17;3470697;84;98770;-86
2022/02/06 03:34:26;;;;;;;9.37;4.17;;;;;;;2.48;100.00;99796.81;3480749;85;29153;-83
2022/02/06 03:39:29;;;;;;;9.33;4.60;;;;;;;2.48;100.00;99781.88;3476355;83;98494;-84
2022/02/06 03:44:44;;;;;;;10.37;4.70;;;;;;;2.47;100.00;99764.77;3477567;83;98785;-83
2022/02/06 03:49:53;;;;;;;13.10;5.73;;;;;;;2.48;100.00;99758.79;3471795;82;98994;-84
2022/02/06 03:54:44;;;;;;;11.50;4.60;;;;;;;2.50;100.00;99747.81;3478871;84;99104;-84
2022/02/06 03:59:45;;;;;;;10.13;4.70;;;;;;;2.50;100.00;99742.38;3457461;84;99123;-83
2022/02/06 04:04:46;;;;;;;11.77;4.90;;;;;;;2.50;100.00;99728.00;3477598;83;32432;-87
2022/02/06 04:09:53;;;;;;;8.43;4.67;;;;;;;2.50;100.00;99717.94;3477898;83;98861;-83
2022/02/06 04:14:56;;;;;;;9.93;4.12;;;;;;;2.53;100.00;99697.46;3476661;83;98585;-84
2022/02/06 04:19:57;;;;;;;8.60;4.10;;;;;;;2.52;100.00;99690.45;3469321;83;98824;-85
2022/02/06 04:24:57;;;;;;;11.08;4.15;;;;;;;2.53;100.00;99685.23;3476859;83;98827;-83
2022/02/06 04:29:58;;;;;;;7.83;3.70;;;;;;;2.54;100.00;99680.83;3465699;83;98961;-84
2022/02/06 04:34:59;;;;;;;10.20;3.80;;;;;;;2.56;100.00;99659.54;3474430;83;32533;-84
2022/02/06 04:40:12;;;;;;;8.37;4.00;;;;;;;2.57;100.00;99655.69;3472038;83;98885;-83
2022/02/06 05:32:11;;;;;;;6.90;3.23;;;;;;;2.79;100.00;99566.87;3604989;79;34686;-86
2022/02/06 05:36:57;;;;;;;6.80;3.33;;;;;;;2.78;100.00;99562.59;3532702;81;98752;-84
2022/02/06 05:41:58;;;;;;;8.13;4.03;;;;;;;2.81;100.00;99551.59;3521039;81;98841;-84
2022/02/06 05:46:59;;;;;;;8.23;4.30;;;;;;;2.82;100.00;99547.73;3556792;81;98486;-82
2022/02/06 05:52:00;;;;;;;8.23;3.73;;;;;;;2.85;100.00;99542.39;3506124;83;98453;-84
2022/02/06 05:57:01;;;;;;;12.07;4.03;;;;;;;2.87;100.00;99531.98;3504874;82;98631;-83
2022/02/06 06:02:02;;;;;;;7.27;3.53;;;;;;;2.90;100.00;99525.84;3542846;81;99475;-85
2022/02/06 06:07:04;;;;;;;7.63;3.70;;;;;;;2.93;100.00;99508.86;3553455;79;99000;-83
2022/02/06 06:12:06;;;;;;;6.37;3.37;;;;;;;2.97;100.00;99504.87;3577346;79;98400;-84
2022/02/06 06:17:07;;;;;;;5.97;3.23;;;;;;;2.99;100.00;99503.38;3578055;80;98452;-84
2022/02/06 06:22:10;;;;;;;8.37;3.50;;;;;;;3.02;100.00;99493.74;3577977;81;98229;-84
2022/02/06 06:27:12;;;;;;;8.53;3.30;;;;;;;3.05;100.00;99491.67;3545589;81;98534;-85
2022/02/06 06:32:13;;;;;;;6.28;3.02;;;;;;;3.06;100.00;99486.48;3496128;82;98774;-84
2022/02/06 06:37:13;;;;;;;8.33;3.23;;;;;;;3.11;100.00;99482.14;3538273;81;98811;-85
2022/02/06 06:42:17;;;;;;;9.67;3.60;;;;;;;3.12;100.00;99468.17;3572874;80;99150;-87
2022/02/06 06:47:18;;;;;;;6.72;3.50;;;;;;;3.15;100.00;99462.05;3604048;80;98723;-84
2022/02/06 06:52:18;;;;;;;6.90;3.37;;;;;;;3.17;100.00;99460.35;3598994;80;34919;-85
2022/02/06 06:57:23;;;;;;;7.62;3.87;;;;;;;3.17;100.00;99444.81;3610204;80;98362;-83
2022/02/06 07:07:25;;;;;;;9.63;4.90;;;;;;;3.15;100.00;99427.27;3520731;82;98539;-82
2022/02/06 07:12:26;;;;;;;8.47;4.53;;;;;;;3.14;100.00;99435.22;3508429;83;98529;-84
2022/02/06 07:17:27;;;;;;;8.78;4.15;;;;;;;3.12;100.00;99424.69;3482327;83;98553;-84
2022/02/06 07:22:33;;;;;;;7.57;3.90;;;;;;;3.13;100.00;99415.97;3443708;84;35442;-83
2022/02/06 07:27:38;;;;;;;6.57;3.97;;;;;;;3.13;100.00;99417.33;3419039;83;98885;-83
2022/02/06 07:32:38;;;;;;;6.78;3.55;;;;;;;3.12;100.00;99404.89;3545785;82;98316;-84
2022/02/06 07:37:55;;;;;;;7.03;3.75;;;;;;;3.10;100.00;99414.75;3480915;82;98523;-86
2022/02/06 07:42:52;;;;;;;7.93;4.03;;;;;;;3.11;100.00;99400.01;3452701;83;99151;-83
2022/02/06 07:47:53;;;;;;;6.87;3.47;;;;;;;3.11;100.00;99398.65;3471784;82;98603;-85
2022/02/06 07:52:54;;;;;;;8.50;3.57;;;;;;;3.12;100.00;99387.98;3494253;83;35605;-85
2022/02/06 07:57:55;;;;;;;5.40;3.33;;;;;;;3.14;100.00;99386.28;3499002;82;98741;-83
2022/02/06 08:02:57;;;;;;;9.13;3.70;;;;;;;3.16;100.00;99373.15;3545258;82;98705;-88
2022/02/06 08:08:00;;;;;;;7.40;3.50;;;;;;;3.18;100.00;99358.63;3525474;82;98853;-84
2022/02/06 08:13:08;;;;;;;9.58;3.95;;;;;;;3.19;100.00;99377.86;3484562;82;98870;-85
2022/02/06 08:18:05;;;;;;;8.63;4.35;;;;;;;3.20;100.00;99351.69;3461286;83;98756;-84
2022/02/06 08:23:06;;;;;;;8.10;4.40;;;;;;;3.23;100.00;99343.40;3497635;83;31195;-84
2022/02/06 08:28:07;;;;;;;8.03;4.03;;;;;;;3.26;100.00;99337.23;3503834;83;98582;-85
2022/02/06 08:33:08;;;;;;;8.63;4.00;;;;;;;3.30;100.00;99326.67;3495491;83;98706;-84
2022/02/06 08:38:12;;;;;;;7.53;4.23;;;;;;;3.34;100.00;99337.03;3481215;83;98858;-84
2022/02/06 08:43:13;;;;;;;6.85;3.52;;;;;;;3.39;100.00;99315.00;3477601;83;98849;-85
2022/02/06 08:48:16;;;;;;;8.63;4.00;;;;;;;3.45;100.00;99305.42;3472089;82;98836;-85
2022/02/06 08:53:19;;;;;;;8.77;4.67;;;;;;;3.51;100.00;99299.94;3464528;83;98505;-85
2022/02/06 08:58:22;;;;;;;12.18;4.62;;;;;;;3.56;100.00;99289.34;3480960;83;98379;-85
2022/02/06 09:03:22;;;;;;;8.90;3.63;;;;;;;3.60;100.00;99301.08;3496382;82;98492;-84
2022/02/06 09:08:24;;;;;;;8.50;3.93;;;;;;;3.66;100.00;99288.17;3477901;81;98832;-87
2022/02/06 09:13:25;;;;;;;9.05;3.90;;;;;;;3.73;100.00;99282.89;3508757;82;99108;-88
2022/02/06 09:18:25;;;;;;;7.90;4.03;;;;;;;3.77;100.00;99270.72;3530750;82;98734;-86
2022/02/06 09:23:26;;;;;;;9.60;4.03;;;;;;;3.77;100.00;99240.79;3539648;82;98083;-86
2022/02/06 09:28:27;;;;;;;12.03;4.67;;;;;;;3.77;100.00;99240.79;3540137;81;98605;-85
2022/02/06 09:38:29;;;;;;;11.27;5.03;;;;;;;3.99;100.00;99255.77;3530186;82;98818;-86
2022/02/06 09:43:33;;;;;;;11.80;4.33;;;;;;;4.05;100.00;99252.95;3539187;81;98770;-83
2022/02/06 09:48:34;;;;;;;11.13;5.67;;;;;;;4.11;100.00;99243.93;3527430;82;98756;-84
2022/02/06 09:53:36;;;;;;;8.57;3.60;;;;;;;4.16;100.00;99231.37;3473596;83;101503;-83
2022/02/06 09:58:56;;;;;;;8.30;2.80;;;;;;;4.23;100.00;99221.96;3477964;83;98637;-84
2022/02/06 10:03:50;;;;;;;9.35;3.40;;;;;;;4.29;100.00;99222.66;3487428;82;98673;-85
2022/02/06 10:08:58;;;;;;;8.75;3.95;;;;;;;4.36;100.00;99205.06;3482520;83;98755;-85
2022/02/06 10:14:00;;;;;;;8.88;3.22;;;;;;;4.43;100.00;99195.64;3490533;83;99078;-86
2022/02/06 10:19:01;;;;;;;9.38;3.20;;;;;;;4.51;100.00;99182.91;3496082;82;98534;-85
2022/02/06 10:24:15;;;;;;;12.10;4.20;;;;;;;4.56;100.00;99169.78;3518415;82;99107;-87
2022/02/06 10:34:26;;;;;;;7.72;3.22;;;;;;;4.65;100.00;99169.52;3523868;82;98653;-87
2022/02/06 10:39:27;;;;;;;10.13;3.60;;;;;;;4.71;100.00;99156.57;3515196;82;99025;-90
2022/02/06 10:44:31;;;;;;;7.20;2.90;;;;;;;4.77;100.00;99149.64;3516369;82;98725;-86
2022/02/06 10:49:32;;;;;;;7.55;2.80;;;;;;;4.83;100.00;99134.53;3497603;82;98674;-85
2022/02/06 10:54:35;;;;;;;11.00;4.50;;;;;;;4.89;100.00;99142.59;3533374;82;98844;-84
2022/02/06 10:59:51;;;;;;;7.40;3.00;;;;;;;4.95;100.00;99126.11;3494459;82;98908;-89
2022/02/06 11:05:22;;;;;;;9.00;3.05;;;;;;;5.00;100.00;99110.80;3500353;83;31632;-87
2022/02/06 11:10:35;;;;;;;10.35;3.00;;;;;;;5.07;100.00;99084.20;3505147;82;98723;-85
2022/02/06 11:15:44;;;;;;;11.57;3.30;;;;;;;5.14;100.00;99080.17;3486609;83;98855;-85
2022/02/06 11:21:00;;;;;;;11.10;4.50;;;;;;;5.20;100.00;99067.20;3530275;82;98666;-87
2022/02/06 11:26:03;;;;;;;8.58;3.47;;;;;;;5.26;100.00;99062.98;3534748;82;99215;-87
2022/02/06 11:31:04;;;;;;;8.18;3.15;;;;;;;5.31;100.00;99049.58;3532998;82;98524;-85
2022/02/06 11:36:13;;;;;;;7.20;2.90;;;;;;;5.36;100.00;99044.55;3532242;81;98597;-85
2022/02/06 11:47:18;;;;;;;7.03;2.85;;;;;;;5.50;100.00;99040.59;3535383;82;98435;-85
2022/02/06 11:52:19;;;;;;;7.10;3.43;;;;;;;5.56;100.00;99028.17;3541113;82;98990;-85
2022/02/06 11:57:25;;;;;;;7.45;2.50;;;;;;;5.61;100.00;99016.91;3537179;82;98318;-87
2022/02/06 12:02:30;;;;;;;7.20;2.92;;;;;;;5.67;100.00;99007.20;3549551;82;98415;-87
2022/02/06 12:07:53;;;;;;;7.75;4.25;;;;;;;5.72;100.00;98997.30;3525359;82;98412;-86
2022/02/06 12:13:26;;;;;;;9.63;3.55;;;;;;;5.77;100.00;98999.69;3531376;82;98540;-85
2022/02/06 12:18:38;;;;;;;8.50;3.45;;;;;;;5.80;100.00;98983.16;3530313;82;98627;-86
2022/02/06 12:23:58;;;;;;;7.22;3.05;;;;;;;5.84;100.00;98975.78;3539344;82;32288;-87
2022/02/06 12:29:21;;;;;;;7.90;3.10;;;;;;;5.85;100.00;98975.38;3527822;82;98542;-88
2022/02/06 12:40:05;;;;;;;8.40;3.50;;;;;;;5.95;100.00;98961.62;3526271;82;98656;-87
2022/02/06 12:45:14;;;;;;;8.60;3.20;;;;;;;5.98;100.00;98952.08;3537791;82;98590;-89
2022/02/06 12:50:26;;;;;;;10.70;3.55;;;;;;;6.01;100.00;98940.38;3536958;82;98496;-88
2022/02/06 12:55:31;;;;;;;11.00;4.78;;;;;;;6.03;100.00;98935.33;3552218;82;98349;-87
2022/02/06 13:00:50;;;;;;;14.00;6.72;;;;;;;6.04;100.00;98927.34;3538692;82;99115;-86
2022/02/06 13:06:05;;;;;;;11.48;5.42;;;;;;;6.03;100.00;98923.05;3540632;82;32237;-82
2022/02/06 13:11:14;;;;;;;12.98;5.53;;;;;;;6.04;100.00;98919.71;3541296;82;98317;-86
2022/02/06 13:37:22;;;;;;;13.38;5.17;;;;;;;6.05;100.00;98854.41;3531708;82;98498;-88
2022/02/06 13:42:16;;;;;;;12.00;4.22;;;;;;;6.05;100.00;98833.32;3537724;82;98645;-87
2022/02/06 13:47:21;;;;;;;10.05;4.28;;;;;;;6.08;100.00;98829.03;3533782;82;98635;-87
2022/02/06 13:52:26;;;;;;;10.70;3.45;;;;;;;6.11;100.00;98813.27;3540855;82;98698;-90
2022/02/06 13:57:36;;;;;;;10.93;4.08;;;;;;;6.13;100.00;98794.53;3536830;82;98899;-86
2022/02/06 14:02:57;;;;;;;14.23;5.00;;;;;;;6.16;100.00;98771.92;3515440;82;99124;-87
2022/02/06 14:08:09;;;;;;;9.03;3.67;;;;;;;6.18;100.00;98758.64;3478679;82;99128;-90
2022/02/06 14:13:25;;;;;;;10.37;4.00;;;;;;;6.19;100.00;98744.61;3455709;81;99023;-85
2022/02/06 14:18:28;;;;;;;11.60;4.30;;;;;;;6.16;100.00;98727.63;3479717;82;99302;-89
2022/02/06 14:23:28;;;;;;;10.00;3.70;;;;;;;6.16;100.00;98715.33;3510185;82;28916;-86
2022/02/06 14:28:31;;;;;;;7.77;3.73;;;;;;;6.15;100.00;98705.58;3492783;82;98560;-86
2022/02/06 14:33:33;;;;;;;8.83;4.00;;;;;;;6.15;100.00;98700.12;3522262;82;98761;-89
2022/02/06 14:38:42;;;;;;;7.58;2.85;;;;;;;6.17;100.00;98689.58;3531458;82;98555;-88
2022/02/06 14:43:48;;;;;;;9.78;3.20;;;;;;;6.20;100.00;98682.55;3544930;82;98557;-87
2022/02/06 14:48:49;;;;;;;12.90;4.23;;;;;;;6.22;100.00;98661.88;3537836;82;98971;-89
2022/02/06 14:53:58;;;;;;;11.50;5.00;;;;;;;6.23;100.00;98642.95;3545246;82;34787;-87
2022/02/06 14:58:53;;;;;;;11.25;4.37;;;;;;;6.25;100.00;98628.91;3531865;82;98843;-90
2022/02/06 15:03:54;;;;;;;8.63;3.67;;;;;;;6.25;100.00;98628.33;3543482;82;98911;-89
2022/02/06 15:08:55;;;;;;;11.17;3.53;;;;;;;6.28;100.00;98598.09;3544032;82;98435;-88
2022/02/06 15:13:57;;;;;;;11.10;4.73;;;;;;;6.29;100.00;98584.62;3539097;82;98710;-87
2022/02/06 15:19:00;;;;;;;13.77;4.17;;;;;;;6.29;100.00;98567.66;3512684;82;98616;-88
2022/02/06 15:24:00;;;;;;;11.63;4.03;;;;;;;6.29;100.00;98560.04;3538368;82;30826;-88
2022/02/06 15:29:01;;;;;;;9.93;3.63;;;;;;;6.28;100.00;98538.76;3535709;82;98665;-87
2022/02/06 15:34:02;;;;;;;10.53;4.53;;;;;;;6.28;100.00;98535.27;3538015;82;98351;-88
2022/02/06 15:39:34;;;;;;;9.60;4.17;;;;;;;6.26;100.00;98534.86;3535020;82;99096;-86
2022/02/06 15:44:25;;;;;;;11.97;4.70;;;;;;;6.24;100.00;98527.66;3541624;82;98608;-91
2022/02/06 15:49:28;;;;;;;8.63;3.00;;;;;;;6.20;100.00;98515.37;3528228;82;99106;-87
2022/02/06 15:54:29;;;;;;;9.77;3.40;;;;;;;6.18;100.00;98499.98;3541043;82;98630;-91
2022/02/06 15:59:32;;;;;;;9.40;3.40;;;;;;;6.12;100.00;98487.88;3526618;82;98817;-85
2022/02/06 16:04:33;;;;;;;10.73;3.40;;;;;;;6.09;100.00;98470.94;3529700;82;98684;-85
2022/02/06 16:09:35;;;;;;;9.30;4.00;;;;;;;6.07;100.00;98467.04;3473413;83;98928;-85
2022/02/06 16:14:42;;;;;;;10.37;4.00;;;;;;;6.03;100.00;98445.20;3490075;83;98602;-88
2022/02/06 16:19:42;;;;;;;;;;;;;;;6.02;100.00;98453.79;3506964;82;98706;-87
2022/02/06 16:24:44;;;;;;;10.10;3.45;;;;;;;5.99;100.00;98434.88;3527028;82;83908;-85
2022/02/06 16:29:47;;;;;;;9.97;4.03;;;;;;;5.98;100.00;98406.59;3448715;83;98767;-83
2022/02/06 16:34:48;;;;;;;8.23;2.70;;;;;;;5.96;100.00;98410.32;3530770;82;97926;-85
2022/02/06 16:39:49;;;;;;;9.80;3.30;;;;;;;5.94;100.00;98401.77;3497444;82;98744;-87
2022/02/06 16:44:52;;;;;;;8.10;2.40;;;;;;;5.92;100.00;98374.85;3476598;83;98568;-86
2022/02/06 16:49:53;;;;;;;8.73;3.60;;;;;;;5.90;100.00;98358.67;3493286;82;99007;-83
2022/02/06 16:54:54;;;;;;;7.90;3.10;;;;;;;5.86;100.00;98345.62;3527893;82;98844;-86
2022/02/06 16:59:56;;;;;;;11.75;4.35;;;;;;;5.83;100.00;98341.73;3482381;83;98281;-85
2022/02/06 17:04:57;;;;;;;11.97;4.83;;;;;;;5.80;100.00;98318.55;3535239;82;98855;-86
2022/02/06 17:10:01;;;;;;;9.03;3.77;;;;;;;5.78;100.00;98309.36;3532038;82;99162;-86
2022/02/06 17:15:03;;;;;;;15.55;5.92;;;;;;;5.77;100.00;98292.80;3540443;82;98966;-85
2022/02/06 17:20:07;;;;;;;9.85;3.70;;;;;;;5.77;100.00;98283.81;3520165;82;98627;-85
2022/02/06 17:25:08;;;;;;;8.13;3.10;;;;;;;5.76;100.00;98272.14;3541352;82;99167;-87
2022/02/06 17:30:10;;;;;;;10.90;4.00;;;;;;;5.71;100.00;98261.64;3537069;82;98129;-87
2022/02/06 17:35:12;;;;;;;12.87;4.20;;;;;;;5.65;100.00;98245.48;3540702;82;98910;-87
2022/02/06 17:40:16;;;;;;;9.67;4.27;;;;;;;5.58;100.00;98238.71;3527802;82;98983;-85
2022/02/06 17:45:22;;;;;;;10.57;3.77;;;;;;;5.53;100.00;98230.94;3540634;82;98974;-90
2022/02/06 17:50:23;;;;;;;7.78;2.90;;;;;;;5.48;100.00;98225.09;3538570;82;98643;-88
2022/02/06 17:55:25;;;;;;;9.07;3.30;;;;;;;5.41;100.00;98217.71;3547505;82;98965;-87
2022/02/06 18:00:28;;;;;;;10.70;4.00;;;;;;;5.36;100.00;98200.39;3549878;82;98855;-89
2022/02/06 18:05:33;;;;;;;8.37;2.97;;;;;;;5.30;100.00;98195.16;3556435;82;26334;-86
2022/02/06 18:10:38;;;;;;;10.03;3.47;;;;;;;5.24;100.00;98185.84;3515947;82;98887;-85
2022/02/06 18:15:45;;;;;;;8.30;3.57;;;;;;;5.19;100.00;98172.61;3541989;82;99093;-85
2022/02/06 18:20:54;;;;;;;10.47;3.63;;;;;;;5.15;100.00;98156.09;3517067;82;98571;-87
2022/02/06 18:26:06;;;;;;;8.00;3.20;;;;;;;5.12;100.00;98143.27;3520474;82;99153;-84
2022/02/06 18:31:07;;;;;;;9.60;3.27;;;;;;;5.08;100.00;98139.77;3505098;82;98520;-85
2022/02/06 18:36:12;;;;;;;10.67;3.27;;;;;;;5.06;100.00;98125.73;3515489;82;35955;-85
2022/02/06 18:41:21;;;;;;;7.17;3.20;;;;;;;5.03;100.00;98112.92;3532356;82;98915;-89
2022/02/06 18:46:22;;;;;;;7.00;2.90;;;;;;;5.01;100.00;98107.86;3540280;81;98812;-87
2022/02/06 18:51:25;;;;;;;5.60;2.40;;;;;;;4.98;100.00;98104.58;3514623;82;99013;-84
2022/02/06 18:56:33;;;;;;;8.27;2.97;;;;;;;4.96;100.00;98110.23;3516114;82;99242;-86
2022/02/06 19:01:36;;;;;;;7.03;2.50;;;;;;;4.93;100.00;98092.72;3442718;84;98799;-85
2022/02/06 19:06:38;;;;;;;6.30;2.50;;;;;;;4.91;100.00;98091.56;3541220;82;98447;-85
2022/02/06 19:11:48;;;;;;;9.40;3.00;;;;;;;4.87;100.00;98082.05;3482679;83;98749;-84
2022/02/06 19:16:59;;;;;;;5.45;2.55;;;;;;;4.82;100.00;98075.64;3489942;82;98807;-85
2022/02/06 19:22:04;;;;;;;8.17;2.50;;;;;;;4.80;100.00;98067.06;3459055;83;98517;-87
2022/02/06 19:27:10;;;;;;;6.62;3.52;;;;;;;4.77;100.00;98069.80;3481539;81;99166;-85
2022/02/06 19:32:13;;;;;;;5.60;2.57;;;;;;;4.74;100.00;98060.47;3499320;82;98917;-87
2022/02/06 19:37:16;;;;;;;5.67;2.22;;;;;;;4.70;100.00;98053.50;3515463;82;98837;-84
2022/02/06 19:42:34;;;;;;;6.40;2.50;;;;;;;4.67;100.00;98050.97;3487014;83;26336;-84
2022/02/06 19:47:36;;;;;;;5.47;2.50;;;;;;;4.65;100.00;98041.04;3533756;81;98537;-85
2022/02/06 19:52:53;;;;;;;10.43;3.57;;;;;;;4.63;100.00;98039.31;3546879;80;98309;-84
2022/02/06 19:57:55;;;;;;;;;;;;;;;4.66;100.00;98035.81;3495709;81;99112;-85
2022/02/06 20:02:56;;;;;;;8.23;3.00;;;;;;;4.66;100.00;98032.30;3569679;81;85220;-85
2022/02/06 20:07:59;;;;;;;8.33;2.43;;;;;;;4.67;100.00;98027.03;3497854;83;98633;-84
2022/02/06 20:13:00;;;;;;;5.92;2.22;;;;;;;4.70;100.00;98020.80;3527043;82;98845;-86
2022/02/06 20:18:01;;;;;;;4.65;1.90;;;;;;;4.72;100.00;98026.63;3547031;81;98641;-86
2022/02/06 20:23:02;;;;;;;5.70;1.80;;;;;;;4.76;100.00;98039.05;3488198;82;98724;-88
2022/02/06 20:28:03;;;;;;;4.67;1.37;;;;;;;4.81;100.00;98040.61;3488645;82;98913;-84
2022/02/06 20:33:06;;;;;;;2.40;0.80;;;;;;;4.84;100.00;98053.42;3629634;80;98453;-84
2022/02/06 20:38:07;;;;;;;2.65;0.88;;;;;;;4.87;100.00;98052.06;3557012;81;98778;-85
2022/02/06 20:43:08;;;;;;;4.37;0.80;;;;;;;4.90;100.00;98058.08;3527728;82;98737;-85
2022/02/06 20:48:09;;;;;;;1.87;0.60;;;;;;;4.93;100.00;98082.39;3451002;83;98430;-86
2022/02/06 20:53:12;;;;;;;2.20;0.90;;;;;;;4.94;100.00;98103.02;3479094;83;98660;-86
2022/02/06 20:58:13;;;;;;;2.83;0.93;;;;;;;4.91;100.00;98123.66;3487287;83;98725;-85
2022/02/06 21:03:20;;;;;;;2.07;0.70;;;;;;;4.83;100.00;98134.41;3490585;83;98573;-86
2022/02/06 21:08:21;;;;;;;2.22;0.80;;;;;;;4.76;100.00;98141.22;3503524;82;98439;-83
2022/02/06 21:13:23;;;;;;;9.40;2.67;;;;;;;4.68;100.00;98151.95;3544843;82;99140;-84
2022/02/06 21:18:26;;;;;;;10.50;2.80;;;;;;;4.59;100.00;98166.55;3541809;82;98193;-85
2022/02/06 21:23:34;;;;;;;7.57;1.37;;;;;;;4.53;100.00;98173.56;3535953;82;98200;-83
2022/02/06 21:28:38;;;;;;;10.55;2.10;;;;;;;4.47;100.00;98188.75;3526076;82;98684;-84
2022/02/06 21:33:40;;;;;;;20.63;5.57;;;;;;;4.40;100.00;98204.31;3491969;82;98707;-86
2022/02/06 21:38:44;;;;;;;10.50;3.47;;;;;;;4.34;100.00;98196.34;3508365;82;99049;-85
2022/02/06 21:43:44;;;;;;;2.87;1.30;;;;;;;4.30;100.00;98207.80;3499090;82;98750;-86
2022/02/06 21:48:48;;;;;;;9.03;2.67;;;;;;;4.22;100.00;98212.50;3421449;83;98471;-86
2022/02/06 21:53:49;;;;;;;7.20;2.40;;;;;;;4.17;100.00;98212.09;3376706;85;26408;-85
2022/02/06 21:58:51;;;;;;;5.83;1.80;;;;;;;4.12;100.00;98219.28;3389714;84;98195;-87
2022/02/06 22:03:55;;;;;;;8.73;3.00;;;;;;;4.07;100.00;98222.38;3512438;81;98818;-84
2022/02/06 22:09:15;;;;;;;6.33;2.23;;;;;;;4.06;100.00;98224.91;3508890;81;98573;-83
2022/02/06 22:29:58;;;;;;;11.77;3.50;;;;;;;3.91;100.00;98245.88;3492847;82;98437;-86
2022/02/06 22:35:01;;;;;;;9.63;3.37;;;;;;;3.90;100.00;98251.70;3527174;82;98470;-82
2022/02/06 22:40:04;;;;;;;8.13;2.33;;;;;;;3.90;100.00;98265.30;3522455;81;98444;-83
2022/02/06 22:45:07;;;;;;;8.17;2.30;;;;;;;3.91;100.00;98273.09;3526383;82;99101;-83
2022/02/06 22:50:08;;;;;;;7.67;1.98;;;;;;;3.92;100.00;98279.30;3519068;82;98832;-85
2022/02/06 22:55:11;;;;;;;13.43;4.15;;;;;;;3.93;100.00;98281.63;3530332;82;98865;-83
2022/02/06 23:00:13;;;;;;;9.50;2.60;;;;;;;3.93;100.00;98282.99;3502561;82;98369;-83
2022/02/06 23:05:15;;;;;;;9.70;2.50;;;;;;;3.96;100.00;98276.00;3471481;82;98781;-83
2022/02/06 23:10:16;;;;;;;8.67;2.00;;;;;;;3.94;100.00;98283.19;3457488;83;98907;-83
2022/02/06 23:15:16;;;;;;;4.83;1.57;;;;;;;3.96;100.00;98286.89;3460165;83;98439;-82
2022/02/06 23:20:17;;;;;;;4.42;1.65;;;;;;;3.97;100.00;98287.08;3503148;82;98905;-82
2022/02/06 23:25:21;;;;;;;6.47;1.40;;;;;;;3.98;100.00;98276.42;3518781;82;98918;-82
2022/02/06 23:30:21;;;;;;;6.42;1.65;;;;;;;3.98;100.00;98273.09;3467692;82;98556;-83
2022/02/06 23:35:22;;;;;;;10.20;2.13;;;;;;;3.97;100.00;98271.55;3431797;83;98746;-83
2022/02/06 23:40:23;;;;;;;7.10;1.70;;;;;;;3.96;100.00;98255.59;3466923;82;98643;-83
2022/02/06 23:45:28;;;;;;;5.83;1.37;;;;;;;3.93;100.00;98265.91;3478333;82;98520;-83
2022/02/06 23:50:43;;;;;;;3.42;1.17;;;;;;;3.91;100.00;98272.30;3479505;81;98503;-84
2022/02/06 23:55:48;;;;;;;4.33;1.32;;;;;;;3.88;100.00;98276.56;3462407;83;98568;-83
